Time;durP1;ratioP1;P1;durP2;ratioP2;P2;SDS_P1;SDS_P2;PMS_P1;PMS_P2;Temp;Humidity;BMP_temperature;BMP_pressure;BME280_temperature;BME280_humidity;BME280_pressure;Samples;Min_cycle;Max_cycle;Signal;HPM_P1;HPM_P2
2022/01/10 00:02:14;;;;;;;;;;;23.20;55.10;;;;;;5101495;28;872;-36
2022/01/10 00:04:42;;;;;;;;;;;23.20;55.10;;;;;;5101318;28;964;-37
2022/01/10 00:07:09;;;;;;;;;;;23.10;55.10;;;;;;5101889;28;945;-37
2022/01/10 00:09:36;;;;;;;;;;;23.20;55.10;;;;;;5102019;28;990;-36
2022/01/10 00:12:03;;;;;;;;;;;23.20;55.10;;;;;;5101219;28;1976;-38
2022/01/10 00:14:30;;;;;;;;;;;23.20;55.10;;;;;;5101723;28;1382;-38
2022/01/10 00:16:56;;;;;;;;;;;23.20;55.30;;;;;;5101703;28;1078;-37
2022/01/10 00:19:24;;;;;;;;;;;23.20;55.10;;;;;;5101206;28;980;-38
2022/01/10 00:21:52;;;;;;;;;;;23.30;55.10;;;;;;5101742;28;913;-38
2022/01/10 00:24:18;;;;;;;;;;;23.30;55.00;;;;;;5101872;28;1002;-38
2022/01/10 00:26:45;;;;;;;;;;;23.30;54.90;;;;;;5101911;28;895;-37
2022/01/10 00:29:12;;;;;;;;;;;23.30;55.10;;;;;;5101494;28;1015;-38
2022/01/10 00:31:39;;;;;;;;;;;23.30;55.00;;;;;;5101572;28;1906;-37
2022/01/10 00:34:06;;;;;;;;;;;23.30;54.90;;;;;;5101700;28;944;-37
2022/01/10 00:36:32;;;;;;;;;;;23.30;54.90;;;;;;5101843;28;1011;-38
2022/01/10 00:39:00;;;;;;;;;;;23.30;54.70;;;;;;5101532;28;1355;-38
2022/01/10 00:41:27;;;;;;;;;;;23.30;54.70;;;;;;5101556;28;1005;-37
2022/01/10 00:43:54;;;;;;;;;;;23.30;54.90;;;;;;5101125;28;955;-38
2022/01/10 00:46:22;;;;;;;;;;;23.30;54.80;;;;;;5101546;28;1023;-38
2022/01/10 00:48:48;;;;;;;;;;;23.30;54.80;;;;;;5100608;28;1830;-41
2022/01/10 00:51:15;;;;;;;;;;;23.40;54.80;;;;;;5100730;28;1901;-38
2022/01/10 00:53:44;;;;;;;;;;;23.30;54.90;;;;;;5101452;28;917;-37
2022/01/10 00:56:12;;;;;;;;;;;23.30;54.90;;;;;;5100965;28;976;-38
2022/01/10 00:58:39;;;;;;;;;;;23.30;54.80;;;;;;5100816;28;980;-38
2022/01/10 01:01:05;;;;;;;;;;;23.30;54.80;;;;;;5101208;28;1009;-40
2022/01/10 01:03:33;;;;;;;;;;;23.30;54.60;;;;;;5101036;28;941;-38
2022/01/10 01:06:00;;;;;;;;;;;23.30;54.70;;;;;;5100965;28;1015;-38
2022/01/10 01:08:28;;;;;;;;;;;23.30;54.70;;;;;;5101102;28;916;-38
2022/01/10 01:13:51;;;;;;;;;;;23.20;54.80;;;;;;5100754;28;692;-38
2022/01/10 01:16:30;;;;;;;;;;;23.20;54.80;;;;;;5101342;28;2640;-37
2022/01/10 01:24:34;;;;;;;;;;;23.20;54.80;;;;;;5100846;28;632;-37
2022/01/10 01:27:02;;;;;;;;;;;23.20;54.80;;;;;;5101101;28;1003;-37
2022/01/10 01:29:30;;;;;;;;;;;23.20;54.60;;;;;;5100716;28;948;-38
2022/01/10 01:31:57;;;;;;;;;;;23.30;54.70;;;;;;5101415;28;1909;-37
2022/01/10 01:34:24;;;;;;;;;;;23.20;54.60;;;;;;5100641;28;963;-39
2022/01/10 01:36:54;;;;;;;;;;;23.20;54.60;;;;;;5100474;28;988;-36
2022/01/10 01:39:23;;;;;;;;;;;23.20;54.80;;;;;;5060243;28;920;-38
2022/01/10 01:41:50;;;;;;;;;;;23.30;54.70;;;;;;5060122;28;983;-38
2022/01/10 01:44:17;;;;;;;;;;;23.30;54.70;;;;;;5059861;28;1011;-38
2022/01/10 01:46:45;;;;;;;;;;;23.30;54.70;;;;;;5059784;28;999;-38
2022/01/10 01:49:12;;;;;;;;;;;23.20;54.60;;;;;;5059599;28;1011;-38
2022/01/10 01:51:39;;;;;;;;;;;23.20;54.60;;;;;;5059999;28;1902;-37
2022/01/10 01:54:07;;;;;;;;;;;23.20;54.80;;;;;;5059928;28;1003;-38
2022/01/10 01:56:34;;;;;;;;;;;23.20;54.80;;;;;;5059970;28;1007;-37
2022/01/10 01:59:01;;;;;;;;;;;23.20;54.70;;;;;;5059931;28;928;-37
2022/01/10 02:01:28;;;;;;;;;;;23.20;54.90;;;;;;5059270;28;1020;-37
2022/01/10 02:03:56;;;;;;;;;;;23.10;55.00;;;;;;5059596;28;987;-36
2022/01/10 02:06:23;;;;;;;;;;;23.10;54.90;;;;;;5060092;28;1024;-38
2022/01/10 02:08:49;;;;;;;;;;;23.10;54.90;;;;;;5059615;28;992;-38
2022/01/10 02:11:16;;;;;;;;;;;23.10;54.90;;;;;;5059725;28;1898;-38
2022/01/10 02:13:44;;;;;;;;;;;23.10;54.90;;;;;;5059577;28;953;-38
2022/01/10 02:16:16;;;;;;;;;;;23.10;54.80;;;;;;5059253;28;943;-38
2022/01/10 02:18:43;;;;;;;;;;;23.10;54.90;;;;;;5059236;28;984;-38
2022/01/10 02:21:11;;;;;;;;;;;23.00;55.00;;;;;;5059845;28;1002;-38
2022/01/10 02:23:39;;;;;;;;;;;23.00;55.00;;;;;;5059173;28;951;-38
2022/01/10 02:26:06;;;;;;;;;;;23.00;55.00;;;;;;5058464;28;981;-38
2022/01/10 02:28:33;;;;;;;;;;;23.00;55.00;;;;;;5058877;28;992;-37
2022/01/10 02:31:00;;;;;;;;;;;23.00;54.90;;;;;;5059189;28;1902;-38
2022/01/10 02:33:28;;;;;;;;;;;23.00;55.00;;;;;;5059187;28;998;-38
2022/01/10 02:36:03;;;;;;;;;;;23.00;54.90;;;;;;5059213;28;988;-37
2022/01/10 02:38:32;;;;;;;;;;;23.00;54.90;;;;;;5085971;28;1043;-36
2022/01/10 02:40:59;;;;;;;;;;;23.00;55.00;;;;;;5098677;28;1757;-37
2022/01/10 02:43:26;;;;;;;;;;;22.90;54.90;;;;;;5098578;28;1075;-37
2022/01/10 02:45:55;;;;;;;;;;;23.00;55.00;;;;;;5098148;28;1460;-37
2022/01/10 02:48:21;;;;;;;;;;;22.90;55.00;;;;;;5098248;28;1004;-38
2022/01/10 02:50:48;;;;;;;;;;;22.90;54.90;;;;;;5099313;28;1983;-38
2022/01/10 02:53:15;;;;;;;;;;;22.90;55.00;;;;;;5098808;28;1000;-37
2022/01/10 02:55:44;;;;;;;;;;;22.90;55.00;;;;;;5098798;28;1019;-38
2022/01/10 02:58:10;;;;;;;;;;;23.00;54.90;;;;;;5099406;28;928;-37
2022/01/10 03:00:37;;;;;;;;;;;23.00;54.90;;;;;;5099007;28;992;-37
2022/01/10 03:03:06;;;;;;;;;;;23.00;54.90;;;;;;5098957;28;985;-37
2022/01/10 03:05:34;;;;;;;;;;;23.00;55.00;;;;;;5098693;28;1313;-38
2022/01/10 03:08:03;;;;;;;;;;;23.00;55.00;;;;;;5098996;28;961;-38
2022/01/10 03:10:30;;;;;;;;;;;22.90;55.00;;;;;;5098529;28;1004;-38
2022/01/10 03:12:59;;;;;;;;;;;22.90;55.00;;;;;;5097877;28;2073;-38
2022/01/10 03:15:25;;;;;;;;;;;22.90;55.10;;;;;;5098609;28;1019;-37
2022/01/10 03:17:52;;;;;;;;;;;22.90;55.10;;;;;;5098506;28;933;-38
2022/01/10 03:20:19;;;;;;;;;;;22.90;55.10;;;;;;5098733;28;1003;-36
2022/01/10 03:22:46;;;;;;;;;;;22.90;55.00;;;;;;5098738;28;1002;-37
2022/01/10 03:25:13;;;;;;;;;;;22.90;55.00;;;;;;5098515;28;936;-38
2022/01/10 03:27:40;;;;;;;;;;;22.90;55.10;;;;;;5098303;28;998;-43
2022/01/10 03:33:21;;;;;;;;;;;22.90;55.00;;;;;;5097742;28;1963;-38
2022/01/10 03:35:47;;;;;;;;;;;22.90;54.90;;;;;;5098445;28;1012;-37
2022/01/10 03:38:14;;;;;;;;;;;22.90;55.00;;;;;;5097920;28;1280;-36
2022/01/10 03:40:41;;;;;;;;;;;22.90;55.00;;;;;;5098379;28;1019;-37
2022/01/10 03:43:07;;;;;;;;;;;22.90;55.00;;;;;;5098088;28;964;-38
2022/01/10 03:45:34;;;;;;;;;;;22.80;55.00;;;;;;5098335;28;991;-38
2022/01/10 03:48:01;;;;;;;;;;;22.80;55.10;;;;;;5098375;28;929;-38
2022/01/10 03:50:29;;;;;;;;;;;22.80;55.00;;;;;;5098522;28;928;-37
2022/01/10 03:52:56;;;;;;;;;;;22.80;55.00;;;;;;5098085;28;1906;-37
2022/01/10 03:55:23;;;;;;;;;;;22.80;55.00;;;;;;5098454;28;988;-38
2022/01/10 03:57:50;;;;;;;;;;;22.80;54.90;;;;;;5098316;28;980;-38
2022/01/10 04:00:17;;;;;;;;;;;22.90;54.80;;;;;;5098228;28;969;-38
2022/01/10 04:02:50;;;;;;;;;;;22.90;54.80;;;;;;5098211;28;949;-38
2022/01/10 04:05:17;;;;;;;;;;;22.90;54.90;;;;;;5097894;28;1000;-38
2022/01/10 04:07:46;;;;;;;;;;;22.80;54.80;;;;;;5098124;28;984;-38
2022/01/10 04:10:12;;;;;;;;;;;22.90;54.70;;;;;;5098013;28;932;-38
2022/01/10 04:12:39;;;;;;;;;;;22.80;54.70;;;;;;5097959;28;1985;-38
2022/01/10 04:15:08;;;;;;;;;;;22.90;54.70;;;;;;5098524;28;903;-36
2022/01/10 04:17:35;;;;;;;;;;;22.90;54.60;;;;;;5098049;28;945;-38
2022/01/10 04:20:02;;;;;;;;;;;22.90;54.60;;;;;;5097704;28;1785;-38
2022/01/10 04:22:28;;;;;;;;;;;22.90;54.60;;;;;;5098118;28;1023;-39
2022/01/10 04:24:56;;;;;;;;;;;22.80;54.60;;;;;;5101337;28;996;-38
2022/01/10 04:27:23;;;;;;;;;;;22.90;54.60;;;;;;5101686;28;1016;-35
2022/01/10 04:29:50;;;;;;;;;;;22.90;54.60;;;;;;5101478;28;976;-38
2022/01/10 04:32:17;;;;;;;;;;;22.90;54.60;;;;;;5101182;28;1897;-38
2022/01/10 04:34:44;;;;;;;;;;;22.90;54.60;;;;;;5101150;28;1052;-38
2022/01/10 04:37:11;;;;;;;;;;;22.90;54.60;;;;;;5100798;28;1212;-38
2022/01/10 04:39:38;;;;;;;;;;;22.90;54.40;;;;;;5101260;28;984;-37
2022/01/10 04:42:06;;;;;;;;;;;22.90;54.50;;;;;;5101557;28;975;-38
2022/01/10 04:44:33;;;;;;;;;;;22.90;54.70;;;;;;5100676;28;983;-37
2022/01/10 04:47:00;;;;;;;;;;;22.90;54.60;;;;;;5101498;28;1021;-38
2022/01/10 04:49:26;;;;;;;;;;;22.90;54.60;;;;;;5100851;28;992;-38
2022/01/10 04:51:54;;;;;;;;;;;22.90;54.50;;;;;;5101287;28;1905;-38
2022/01/10 04:54:20;;;;;;;;;;;22.90;54.40;;;;;;5100761;28;1005;-37
2022/01/10 04:56:47;;;;;;;;;;;22.90;54.50;;;;;;5100142;28;1020;-38
2022/01/10 04:59:15;;;;;;;;;;;23.00;54.40;;;;;;5100816;28;972;-38
2022/01/10 05:01:42;;;;;;;;;;;23.00;54.30;;;;;;5100343;28;952;-38
2022/01/10 05:04:10;;;;;;;;;;;23.00;54.30;;;;;;5101006;28;1004;-37
2022/01/10 05:06:37;;;;;;;;;;;23.00;54.30;;;;;;5100427;28;936;-38
2022/01/10 05:09:03;;;;;;;;;;;23.00;54.20;;;;;;5100281;28;980;-38
2022/01/10 05:11:32;;;;;;;;;;;23.00;54.30;;;;;;5100889;28;1898;-38
2022/01/10 05:13:59;;;;;;;;;;;22.90;54.50;;;;;;5100308;28;1016;-38
2022/01/10 05:16:27;;;;;;;;;;;22.90;54.40;;;;;;5100483;28;984;-38
2022/01/10 05:18:54;;;;;;;;;;;22.90;54.60;;;;;;5099683;28;1019;-38
2022/01/10 05:21:21;;;;;;;;;;;22.90;54.50;;;;;;5099454;28;941;-37
2022/01/10 05:23:48;;;;;;;;;;;22.90;54.50;;;;;;5098704;28;1155;-37
2022/01/10 05:26:15;;;;;;;;;;;22.80;54.60;;;;;;5099178;28;996;-38
2022/01/10 05:28:42;;;;;;;;;;;22.80;54.60;;;;;;5099026;28;999;-38
2022/01/10 05:31:08;;;;;;;;;;;22.90;54.40;;;;;;5099368;28;1023;-38
2022/01/10 05:33:36;;;;;;;;;;;22.90;54.30;;;;;;5099695;28;1893;-37
2022/01/10 05:36:04;;;;;;;;;;;22.90;54.40;;;;;;5098753;28;999;-38
2022/01/10 05:38:30;;;;;;;;;;;23.00;54.30;;;;;;5099168;28;1222;-36
2022/01/10 05:40:57;;;;;;;;;;;22.90;54.20;;;;;;5099430;28;1000;-38
2022/01/10 05:43:24;;;;;;;;;;;22.90;54.20;;;;;;5099253;28;1000;-38
2022/01/10 05:45:51;;;;;;;;;;;22.90;54.20;;;;;;5099672;28;928;-38
2022/01/10 05:48:22;;;;;;;;;;;22.90;54.20;;;;;;5099612;28;988;-38
2022/01/10 05:50:51;;;;;;;;;;;22.90;54.10;;;;;;5098977;28;1030;-38
2022/01/10 05:53:18;;;;;;;;;;;22.90;54.10;;;;;;5098758;28;1898;-38
2022/01/10 05:55:44;;;;;;;;;;;22.90;54.20;;;;;;5098536;28;944;-37
2022/01/10 05:58:11;;;;;;;;;;;23.00;54.20;;;;;;5098334;28;945;-36
2022/01/10 06:00:38;;;;;;;;;;;22.90;54.10;;;;;;5097706;28;1018;-35
2022/01/10 06:03:05;;;;;;;;;;;22.90;54.30;;;;;;5098821;28;913;-37
2022/01/10 06:05:32;;;;;;;;;;;22.90;54.30;;;;;;5097416;28;924;-36
2022/01/10 06:08:01;;;;;;;;;;;23.00;54.20;;;;;;5098099;28;927;-36
2022/01/10 06:10:27;;;;;;;;;;;22.90;54.20;;;;;;5098148;28;1018;-37
2022/01/10 06:12:54;;;;;;;;;;;22.90;54.20;;;;;;5097474;28;1979;-37
2022/01/10 06:15:21;;;;;;;;;;;22.90;54.20;;;;;;5098135;28;980;-36
2022/01/10 06:17:48;;;;;;;;;;;22.90;54.40;;;;;;5096774;28;999;-36
2022/01/10 06:20:15;;;;;;;;;;;23.00;54.40;;;;;;5096050;28;927;-37
2022/01/10 06:22:42;;;;;;;;;;;23.00;54.20;;;;;;5096379;28;1087;-37
2022/01/10 06:25:11;;;;;;;;;;;23.00;54.20;;;;;;5096852;28;940;-37
2022/01/10 06:27:38;;;;;;;;;;;23.00;54.20;;;;;;5095439;28;1028;-36
2022/01/10 06:30:06;;;;;;;;;;;23.00;54.30;;;;;;5096146;28;951;-37
2022/01/10 06:32:33;;;;;;;;;;;23.10;54.30;;;;;;5095634;28;1918;-36
2022/01/10 06:34:59;;;;;;;;;;;23.10;54.50;;;;;;5097190;28;1008;-35
2022/01/10 06:37:26;;;;;;;;;;;23.20;54.60;;;;;;5097576;28;1071;-34
2022/01/10 06:39:53;;;;;;;;;;;23.20;54.50;;;;;;5097846;28;1146;-34
2022/01/10 06:42:22;;;;;;;;;;;23.10;54.40;;;;;;5096631;28;984;-34
2022/01/10 06:44:48;;;;;;;;;;;23.10;54.30;;;;;;5096431;28;991;-34
2022/01/10 06:47:15;;;;;;;;;;;23.10;54.30;;;;;;5097183;28;976;-34
2022/01/10 06:49:42;;;;;;;;;;;23.10;54.30;;;;;;5096198;28;968;-34
2022/01/10 06:52:09;;;;;;;;;;;23.10;54.30;;;;;;5097130;28;1901;-34
2022/01/10 06:54:35;;;;;;;;;;;23.10;54.40;;;;;;5097113;28;980;-35
2022/01/10 06:57:02;;;;;;;;;;;23.10;54.30;;;;;;5097501;28;1278;-34
2022/01/10 06:59:30;;;;;;;;;;;23.00;54.20;;;;;;5097382;28;960;-34
2022/01/10 07:01:58;;;;;;;;;;;23.10;54.20;;;;;;5097674;28;1017;-35
2022/01/10 07:04:25;;;;;;;;;;;23.10;54.20;;;;;;5096920;28;852;-34
2022/01/10 07:06:52;;;;;;;;;;;23.10;54.10;;;;;;5097136;28;1099;-34
2022/01/10 07:09:19;;;;;;;;;;;23.00;54.20;;;;;;5097017;28;943;-34
2022/01/10 07:11:46;;;;;;;;;;;23.00;54.20;;;;;;5097483;28;952;-34
2022/01/10 07:14:14;;;;;;;;;;;23.00;54.30;;;;;;5096751;28;2063;-34
2022/01/10 07:16:42;;;;;;;;;;;23.00;54.20;;;;;;5096869;28;1020;-34
2022/01/10 07:19:09;;;;;;;;;;;23.00;54.20;;;;;;5097232;28;940;-34
2022/01/10 07:21:38;;;;;;;;;;;22.90;54.20;;;;;;5096836;28;952;-34
2022/01/10 07:24:05;;;;;;;;;;;22.90;54.30;;;;;;5096766;28;975;-35
2022/01/10 07:26:32;;;;;;;;;;;22.90;54.40;;;;;;5096547;28;1002;-34
2022/01/10 07:28:58;;;;;;;;;;;22.90;54.40;;;;;;5096394;28;1007;-34
2022/01/10 07:31:25;;;;;;;;;;;22.90;54.40;;;;;;5097027;28;1038;-34
2022/01/10 07:33:54;;;;;;;;;;;22.90;54.50;;;;;;5095764;28;1902;-34
2022/01/10 07:36:21;;;;;;;;;;;22.80;54.50;;;;;;5095556;28;1080;-34
2022/01/10 07:38:48;;;;;;;;;;;22.90;54.40;;;;;;5096038;28;1063;-33
2022/01/10 07:41:15;;;;;;;;;;;22.80;54.30;;;;;;5095396;28;930;-33
2022/01/10 07:43:41;;;;;;;;;;;22.80;54.30;;;;;;5094524;28;976;-33
2022/01/10 07:46:10;;;;;;;;;;;22.80;54.30;;;;;;5095101;28;1434;-33
2022/01/10 07:48:38;;;;;;;;;;;22.80;54.30;;;;;;5095085;28;1008;-34
2022/01/10 07:51:09;;;;;;;;;;;22.80;54.20;;;;;;5094748;28;876;-33
2022/01/10 07:53:35;;;;;;;;;;;22.80;54.20;;;;;;5094469;28;1906;-33
2022/01/10 07:56:03;;;;;;;;;;;22.80;54.20;;;;;;5095076;28;1106;-35
2022/01/10 07:58:29;;;;;;;;;;;22.80;54.10;;;;;;5095605;28;868;-34
2022/01/10 08:00:56;;;;;;;;;;;22.80;54.10;;;;;;5099201;28;893;-34
2022/01/10 08:03:23;;;;;;;;;;;22.80;54.10;;;;;;5098598;28;980;-34
2022/01/10 08:05:50;;;;;;;;;;;22.80;54.00;;;;;;5098807;28;963;-34
2022/01/10 08:08:18;;;;;;;;;;;22.80;54.00;;;;;;5098533;28;999;-34
2022/01/10 08:10:45;;;;;;;;;;;22.80;54.00;;;;;;5098107;28;908;-34
2022/01/10 08:13:11;;;;;;;;;;;22.70;54.00;;;;;;5097816;28;1978;-34
2022/01/10 08:15:38;;;;;;;;;;;22.80;54.00;;;;;;5097645;28;968;-34
2022/01/10 08:18:06;;;;;;;;;;;22.80;54.00;;;;;;5097497;28;996;-34
2022/01/10 08:20:33;;;;;;;;;;;22.80;54.00;;;;;;5099030;28;998;-34
2022/01/10 08:23:00;;;;;;;;;;;22.80;54.00;;;;;;5099134;28;984;-33
2022/01/10 08:25:28;;;;;;;;;;;22.70;53.90;;;;;;5097831;28;951;-33
2022/01/10 08:27:55;;;;;;;;;;;22.80;53.90;;;;;;5097647;28;932;-33
2022/01/10 08:30:21;;;;;;;;;;;22.80;53.90;;;;;;5097163;28;1003;-33
2022/01/10 08:32:50;;;;;;;;;;;22.80;53.90;;;;;;5097407;28;1906;-33
2022/01/10 08:35:17;;;;;;;;;;;22.80;53.90;;;;;;5098169;28;948;-35
2022/01/10 08:37:43;;;;;;;;;;;22.70;53.80;;;;;;5096897;28;974;-33
2022/01/10 08:40:11;;;;;;;;;;;22.80;53.80;;;;;;5097800;28;956;-34
2022/01/10 08:42:39;;;;;;;;;;;22.70;53.80;;;;;;5097246;28;877;-34
2022/01/10 08:45:08;;;;;;;;;;;22.80;53.80;;;;;;5098665;28;1082;-33
2022/01/10 08:47:35;;;;;;;;;;;22.80;53.80;;;;;;5099965;28;999;-34
2022/01/10 08:50:01;;;;;;;;;;;22.80;53.80;;;;;;5099041;28;1062;-34
2022/01/10 08:52:28;;;;;;;;;;;22.70;53.60;;;;;;5099622;28;908;-34
2022/01/10 08:54:55;;;;;;;;;;;22.70;53.70;;;;;;5098349;28;1991;-34
2022/01/10 08:57:21;;;;;;;;;;;22.80;53.60;;;;;;5098628;28;1386;-34
2022/01/10 08:59:50;;;;;;;;;;;22.70;53.60;;;;;;5099785;28;968;-34
2022/01/10 09:02:16;;;;;;;;;;;22.70;53.60;;;;;;5098745;28;864;-34
2022/01/10 09:04:43;;;;;;;;;;;22.70;53.60;;;;;;5098964;28;928;-34
2022/01/10 09:07:10;;;;;;;;;;;22.70;53.60;;;;;;5097985;28;1003;-34
2022/01/10 09:09:38;;;;;;;;;;;22.70;53.60;;;;;;5098515;28;979;-34
2022/01/10 09:12:05;;;;;;;;;;;22.70;53.60;;;;;;5098296;28;999;-34
2022/01/10 09:14:31;;;;;;;;;;;22.70;53.60;;;;;;5097529;28;1909;-34
2022/01/10 09:17:00;;;;;;;;;;;22.70;53.50;;;;;;5097081;28;1468;-34
2022/01/10 09:19:27;;;;;;;;;;;22.70;53.50;;;;;;5098468;28;881;-34
2022/01/10 09:21:53;;;;;;;;;;;22.70;53.60;;;;;;5098465;28;932;-34
2022/01/10 09:24:21;;;;;;;;;;;22.70;53.50;;;;;;5097486;28;1010;-34
2022/01/10 09:26:47;;;;;;;;;;;22.70;54.70;;;;;;5094903;28;1011;-34
2022/01/10 09:29:14;;;;;;;;;;;22.70;53.60;;;;;;5096845;28;1842;-33
2022/01/10 09:31:41;;;;;;;;;;;22.70;53.50;;;;;;5097521;28;1004;-33
2022/01/10 09:34:09;;;;;;;;;;;22.70;53.60;;;;;;5097362;28;1901;-33
2022/01/10 09:36:36;;;;;;;;;;;22.60;53.50;;;;;;5098012;28;963;-33
2022/01/10 09:39:04;;;;;;;;;;;22.60;54.60;;;;;;5098158;28;1233;-33
2022/01/10 09:41:30;;;;;;;;;;;22.70;53.60;;;;;;5096923;28;1015;-33
2022/01/10 09:44:00;;;;;;;;;;;22.60;53.40;;;;;;5098189;28;923;-33
2022/01/10 09:46:27;;;;;;;;;;;22.60;53.50;;;;;;5097484;28;948;-33
2022/01/10 09:48:54;;;;;;;;;;;22.70;53.50;;;;;;5097964;28;952;-33
2022/01/10 09:51:26;;;;;;;;;;;22.60;53.40;;;;;;5098230;28;1976;-33
2022/01/10 09:53:53;;;;;;;;;;;22.60;53.40;;;;;;5097848;28;1987;-34
2022/01/10 09:56:20;;;;;;;;;;;22.60;53.40;;;;;;5096878;28;932;-34
2022/01/10 09:58:47;;;;;;;;;;;22.60;53.50;;;;;;5097293;28;1014;-34
2022/01/10 10:01:14;;;;;;;;;;;22.60;53.50;;;;;;5097605;28;1019;-34
2022/01/10 10:03:43;;;;;;;;;;;22.60;53.50;;;;;;5097627;28;1043;-34
2022/01/10 10:06:10;;;;;;;;;;;22.60;53.50;;;;;;5097507;28;1005;-34
2022/01/10 10:08:39;;;;;;;;;;;22.50;53.50;;;;;;5097197;28;971;-34
2022/01/10 10:11:06;;;;;;;;;;;22.60;53.50;;;;;;5097710;28;1064;-34
2022/01/10 10:13:36;;;;;;;;;;;22.50;53.50;;;;;;5096314;28;1978;-34
2022/01/10 10:16:11;;;;;;;;;;;22.50;53.50;;;;;;5097265;28;963;-34
2022/01/10 10:18:38;;;;;;;;;;;22.50;53.50;;;;;;5097366;28;1027;-34
2022/01/10 10:21:10;;;;;;;;;;;22.50;53.50;;;;;;5097157;28;988;-34
2022/01/10 10:23:40;;;;;;;;;;;22.50;53.50;;;;;;5096329;28;814;-34
2022/01/10 10:26:08;;;;;;;;;;;22.50;53.50;;;;;;5098224;28;990;-34
2022/01/10 10:28:37;;;;;;;;;;;22.50;53.50;;;;;;5097433;28;944;-34
2022/01/10 10:31:04;;;;;;;;;;;22.50;53.50;;;;;;5097295;28;1785;-34
2022/01/10 10:33:31;;;;;;;;;;;22.50;53.50;;;;;;5096872;28;1984;-35
2022/01/10 10:36:00;;;;;;;;;;;22.50;53.50;;;;;;5097393;28;1019;-34
2022/01/10 10:38:27;;;;;;;;;;;22.50;53.50;;;;;;5096276;28;992;-34
2022/01/10 10:40:54;;;;;;;;;;;22.50;53.50;;;;;;5096928;28;997;-34
2022/01/10 10:43:24;;;;;;;;;;;22.50;53.50;;;;;;5096572;28;984;-34
2022/01/10 10:45:50;;;;;;;;;;;22.50;53.40;;;;;;5097315;28;1027;-34
2022/01/10 10:48:17;;;;;;;;;;;22.50;53.40;;;;;;5096367;28;981;-34
2022/01/10 10:50:47;;;;;;;;;;;22.50;53.50;;;;;;5096365;28;960;-34
2022/01/10 10:53:14;;;;;;;;;;;22.50;53.50;;;;;;5096649;28;1003;-34
2022/01/10 10:55:42;;;;;;;;;;;22.50;53.50;;;;;;5096419;28;1910;-34
2022/01/10 10:58:08;;;;;;;;;;;22.40;53.40;;;;;;5095558;28;928;-34
2022/01/10 11:00:37;;;;;;;;;;;22.40;53.40;;;;;;5096191;28;1055;-34
2022/01/10 11:03:04;;;;;;;;;;;22.40;53.50;;;;;;5096878;28;893;-34
2022/01/10 11:05:31;;;;;;;;;;;22.50;53.50;;;;;;5096077;28;972;-34
2022/01/10 11:07:58;;;;;;;;;;;22.40;53.50;;;;;;5096262;28;1019;-34
2022/01/10 11:10:25;;;;;;;;;;;22.40;53.40;;;;;;5096867;28;999;-34
2022/01/10 11:12:54;;;;;;;;;;;22.40;53.50;;;;;;5095333;28;957;-34
2022/01/10 11:15:21;;;;;;;;;;;22.50;53.50;;;;;;5095912;28;1906;-34
2022/01/10 11:17:52;;;;;;;;;;;22.40;53.50;;;;;;5095549;28;943;-34
2022/01/10 11:20:19;;;;;;;;;;;22.40;53.60;;;;;;5094209;28;955;-35
2022/01/10 11:22:50;;;;;;;;;;;22.40;53.50;;;;;;5094344;28;1034;-34
2022/01/10 11:25:25;;;;;;;;;;;22.40;53.50;;;;;;5095041;28;978;-34
2022/01/10 11:27:52;;;;;;;;;;;22.40;53.50;;;;;;5095369;28;936;-34
2022/01/10 11:30:28;;;;;;;;;;;22.40;53.50;;;;;;5093819;28;994;-34
2022/01/10 11:32:57;;;;;;;;;;;22.40;53.50;;;;;;5096546;28;924;-34
2022/01/10 11:35:27;;;;;;;;;;;22.50;53.40;;;;;;5100061;28;1905;-34
2022/01/10 11:37:53;;;;;;;;;;;22.40;53.40;;;;;;5100322;28;1285;-34
2022/01/10 11:40:21;;;;;;;;;;;22.40;53.40;;;;;;5099590;28;1015;-34
2022/01/10 11:42:53;;;;;;;;;;;22.40;53.40;;;;;;5098432;28;937;-35
2022/01/10 11:45:19;;;;;;;;;;;22.40;53.50;;;;;;5098540;28;995;-34
2022/01/10 11:48:06;;;;;;;;;;;22.40;53.30;;;;;;5099832;28;979;-34
2022/01/10 11:50:34;;;;;;;;;;;22.40;53.40;;;;;;5099779;28;949;-34
2022/01/10 11:53:01;;;;;;;;;;;22.40;53.40;;;;;;5099312;28;1009;-35
2022/01/10 11:55:31;;;;;;;;;;;22.40;53.40;;;;;;5098578;28;1893;-34
2022/01/10 11:58:03;;;;;;;;;;;22.40;53.40;;;;;;5099328;28;1016;-34
2022/01/10 12:00:35;;;;;;;;;;;22.40;53.40;;;;;;5098945;28;932;-34
2022/01/10 12:03:02;;;;;;;;;;;22.40;53.40;;;;;;5099089;28;976;-34
2022/01/10 12:05:31;;;;;;;;;;;22.40;53.50;;;;;;5099044;28;1002;-34
2022/01/10 12:07:59;;;;;;;;;;;22.40;53.50;;;;;;5097701;28;1008;-34
2022/01/10 12:10:27;;;;;;;;;;;22.40;53.50;;;;;;5097701;28;947;-34
2022/01/10 12:13:00;;;;;;;;;;;22.30;53.50;;;;;;5097314;28;1013;-34
2022/01/10 12:15:30;;;;;;;;;;;22.40;53.50;;;;;;5097359;28;1882;-34
2022/01/10 12:17:57;;;;;;;;;;;22.40;53.40;;;;;;5097349;28;991;-34
2022/01/10 12:20:24;;;;;;;;;;;22.30;53.50;;;;;;5097632;28;912;-34
2022/01/10 12:22:52;;;;;;;;;;;22.30;53.40;;;;;;5098211;28;929;-34
2022/01/10 12:25:20;;;;;;;;;;;22.40;53.40;;;;;;5097665;28;1910;-34
2022/01/10 12:27:48;;;;;;;;;;;22.30;53.40;;;;;;5098228;28;892;-34
2022/01/10 12:30:15;;;;;;;;;;;22.30;53.50;;;;;;5096675;28;1079;-34
2022/01/10 12:32:42;;;;;;;;;;;22.40;53.40;;;;;;5098017;28;892;-34
2022/01/10 12:35:09;;;;;;;;;;;22.30;53.40;;;;;;5096216;28;1906;-35
2022/01/10 12:37:36;;;;;;;;;;;22.30;53.40;;;;;;5096874;28;1637;-34
2022/01/10 12:40:03;;;;;;;;;;;22.30;53.50;;;;;;5097663;28;1019;-34
2022/01/10 12:42:32;;;;;;;;;;;22.30;53.50;;;;;;5098022;28;931;-33
2022/01/10 12:44:59;;;;;;;;;;;22.40;53.40;;;;;;5097913;28;888;-33
2022/01/10 12:47:26;;;;;;;;;;;22.40;53.40;;;;;;5098237;28;1026;-33
2022/01/10 12:49:52;;;;;;;;;;;22.30;53.40;;;;;;5097342;28;1793;-34
2022/01/10 12:52:20;;;;;;;;;;;22.30;53.40;;;;;;5096276;28;1011;-34
2022/01/10 12:54:47;;;;;;;;;;;22.30;53.40;;;;;;5096753;28;1912;-34
2022/01/10 12:57:14;;;;;;;;;;;22.40;53.40;;;;;;5096993;28;1007;-34
2022/01/10 12:59:42;;;;;;;;;;;22.30;53.40;;;;;;5097207;28;996;-34
2022/01/10 13:02:09;;;;;;;;;;;22.30;53.40;;;;;;5098335;28;2057;-34
2022/01/10 13:04:37;;;;;;;;;;;22.30;53.40;;;;;;5097551;28;952;-35
2022/01/10 13:07:05;;;;;;;;;;;22.30;53.50;;;;;;5097098;28;972;-34
2022/01/10 13:09:32;;;;;;;;;;;22.30;53.40;;;;;;5097479;28;861;-34
2022/01/10 13:12:13;;;;;;;;;;;22.30;53.50;;;;;;5098209;28;1135;-34
2022/01/10 13:14:40;;;;;;;;;;;22.30;53.50;;;;;;5098068;28;1975;-34
2022/01/10 13:17:09;;;;;;;;;;;22.30;53.50;;;;;;5098626;28;885;-35
2022/01/10 13:19:37;;;;;;;;;;;22.30;53.40;;;;;;5097459;28;940;-35
2022/01/10 13:22:07;;;;;;;;;;;22.30;53.40;;;;;;5098205;28;944;-34
2022/01/10 13:24:36;;;;;;;;;;;22.30;53.40;;;;;;5097415;28;1210;-34
2022/01/10 13:27:04;;;;;;;;;;;22.30;53.40;;;;;;5097684;28;1007;-34
2022/01/10 13:29:31;;;;;;;;;;;22.30;53.40;;;;;;5094257;28;1020;-34
2022/01/10 13:31:58;;;;;;;;;;;22.30;53.40;;;;;;5096639;28;982;-34
2022/01/10 13:34:27;;;;;;;;;;;22.30;53.50;;;;;;5097618;28;1905;-35
2022/01/10 13:36:54;;;;;;;;;;;22.30;53.50;;;;;;5097510;28;1033;-34
2022/01/10 13:39:21;;;;;;;;;;;22.30;53.40;;;;;;5097818;28;997;-34
2022/01/10 13:41:58;;;;;;;;;;;22.30;53.40;;;;;;5098333;28;988;-34
2022/01/10 13:44:24;;;;;;;;;;;22.30;53.50;;;;;;5095617;28;1000;-34
2022/01/10 13:46:59;;;;;;;;;;;22.20;53.40;;;;;;5096306;28;1152;-34
2022/01/10 13:49:28;;;;;;;;;;;22.30;53.50;;;;;;5096122;28;1140;-34
2022/01/10 13:52:08;;;;;;;;;;;22.30;53.50;;;;;;5096469;28;1027;-34
2022/01/10 13:54:35;;;;;;;;;;;22.30;53.40;;;;;;5095662;28;1914;-34
2022/01/10 13:57:14;;;;;;;;;;;22.30;53.50;;;;;;5093615;28;1369;-34
2022/01/10 13:59:41;;;;;;;;;;;22.20;53.60;;;;;;5094353;28;947;-34
2022/01/10 14:02:09;;;;;;;;;;;22.20;53.50;;;;;;5095951;28;999;-34
2022/01/10 14:04:37;;;;;;;;;;;22.20;53.50;;;;;;5095109;28;971;-35
2022/01/10 14:07:07;;;;;;;;;;;22.30;53.50;;;;;;5095953;28;870;-34
2022/01/10 14:09:34;;;;;;;;;;;22.30;53.50;;;;;;5095385;28;1016;-34
2022/01/10 14:12:02;;;;;;;;;;;22.30;53.50;;;;;;5095772;28;925;-34
2022/01/10 14:14:29;;;;;;;;;;;22.30;53.50;;;;;;5094835;28;1988;-34
2022/01/10 14:16:57;;;;;;;;;;;22.30;53.40;;;;;;5094984;28;1436;-34
2022/01/10 14:19:23;;;;;;;;;;;22.30;53.40;;;;;;5095718;28;949;-34
2022/01/10 14:21:52;;;;;;;;;;;22.30;53.40;;;;;;5095144;28;1014;-35
2022/01/10 14:24:19;;;;;;;;;;;22.20;53.30;;;;;;5097069;28;869;-34
2022/01/10 14:26:46;;;;;;;;;;;22.20;53.40;;;;;;5097127;28;1124;-34
2022/01/10 14:29:13;;;;;;;;;;;22.20;53.30;;;;;;5095451;28;974;-34
2022/01/10 14:31:40;;;;;;;;;;;22.20;53.30;;;;;;5098301;28;1003;-34
2022/01/10 14:34:07;;;;;;;;;;;22.20;53.30;;;;;;5096884;28;980;-35
2022/01/10 14:36:34;;;;;;;;;;;22.20;53.30;;;;;;5097336;28;1978;-35
2022/01/10 14:39:02;;;;;;;;;;;22.20;53.40;;;;;;5097046;28;1023;-34
2022/01/10 14:41:28;;;;;;;;;;;22.20;53.30;;;;;;5097385;28;897;-34
2022/01/10 14:43:55;;;;;;;;;;;22.20;53.30;;;;;;5095597;28;868;-34
2022/01/10 14:46:22;;;;;;;;;;;22.20;53.30;;;;;;5096393;28;932;-34
2022/01/10 14:48:50;;;;;;;;;;;22.20;53.30;;;;;;5078619;28;1185;-35
2022/01/10 14:51:17;;;;;;;;;;;22.20;53.20;;;;;;5076249;28;1514;-35